sensor_id;sensor_type;location;lat;lon;timestamp;pressure;altitude;pressure_sealevel;temperature;humidity
73671;BME280;61968;48.178;11.566;2022-10-31T00:00:32;96224.88;;;14.43;43.02
73671;BME280;61968;48.178;11.566;2022-10-31T00:02:59;96224.31;;;14.41;43.04
73671;BME280;61968;48.178;11.566;2022-10-31T00:05:25;96217.06;;;14.37;43.13
73671;BME280;61968;48.178;11.566;2022-10-31T00:07:53;96213.94;;;14.40;42.98
73671;BME280;61968;48.178;11.566;2022-10-31T00:10:20;96222.38;;;14.37;43.14
73671;BME280;61968;48.178;11.566;2022-10-31T00:12:47;96225.25;;;14.35;43.27
73671;BME280;61968;48.178;11.566;2022-10-31T00:15:14;96214.28;;;14.32;43.55
73671;BME280;61968;48.178;11.566;2022-10-31T00:17:40;96213.81;;;14.35;43.10
73671;BME280;61968;48.178;11.566;2022-10-31T00:20:08;96215.91;;;14.33;43.42
73671;BME280;61968;48.178;11.566;2022-10-31T00:22:37;96212.81;;;14.24;43.73
73671;BME280;61968;48.178;11.566;2022-10-31T00:25:05;96214.47;;;14.25;43.56
73671;BME280;61968;48.178;11.566;2022-10-31T00:27:33;96217.03;;;14.20;43.83
73671;BME280;61968;48.178;11.566;2022-10-31T00:29:59;96211.78;;;14.25;43.59
73671;BME280;61968;48.178;11.566;2022-10-31T00:32:28;96214.84;;;14.17;43.74
73671;BME280;61968;48.178;11.566;2022-10-31T00:34:55;96216.56;;;14.06;44.10
73671;BME280;61968;48.178;11.566;2022-10-31T00:37:21;96219.44;;;14.04;44.09
73671;BME280;61968;48.178;11.566;2022-10-31T00:39:48;96213.97;;;14.11;43.90
73671;BME280;61968;48.178;11.566;2022-10-31T00:42:18;96218.16;;;14.24;43.75
73671;BME280;61968;48.178;11.566;2022-10-31T00:44:45;96213.97;;;14.28;43.48
73671;BME280;61968;48.178;11.566;2022-10-31T00:47:12;96220.06;;;14.12;43.76
73671;BME280;61968;48.178;11.566;2022-10-31T00:49:38;96211.56;;;14.10;43.99
73671;BME280;61968;48.178;11.566;2022-10-31T00:52:05;96215.41;;;14.02;44.08
73671;BME280;61968;48.178;11.566;2022-10-31T00:54:32;96218.28;;;13.84;44.47
73671;BME280;61968;48.178;11.566;2022-10-31T00:56:58;96219.19;;;13.89;44.16
73671;BME280;61968;48.178;11.566;2022-10-31T00:59:26;96212.72;;;13.85;44.19
73671;BME280;61968;48.178;11.566;2022-10-31T01:01:53;96212.31;;;13.93;44.13
73671;BME280;61968;48.178;11.566;2022-10-31T01:04:19;96216.63;;;13.94;44.07
73671;BME280;61968;48.178;11.566;2022-10-31T01:06:46;96211.03;;;13.96;44.06
73671;BME280;61968;48.178;11.566;2022-10-31T01:09:12;96215.66;;;14.00;43.76
73671;BME280;61968;48.178;11.566;2022-10-31T01:11:39;96207.69;;;14.00;43.91
73671;BME280;61968;48.178;11.566;2022-10-31T01:14:06;96206.13;;;14.04;43.85
73671;BME280;61968;48.178;11.566;2022-10-31T01:16:36;96209.28;;;14.01;43.77
73671;BME280;61968;48.178;11.566;2022-10-31T01:19:03;96207.50;;;13.90;44.05
73671;BME280;61968;48.178;11.566;2022-10-31T01:21:29;96209.19;;;13.79;44.22
73671;BME280;61968;48.178;11.566;2022-10-31T01:23:56;96208.44;;;13.84;44.21
73671;BME280;61968;48.178;11.566;2022-10-31T01:26:24;96214.75;;;13.95;43.77
73671;BME280;61968;48.178;11.566;2022-10-31T01:28:53;96216.47;;;14.01;43.65
73671;BME280;61968;48.178;11.566;2022-10-31T01:31:23;96220.41;;;13.98;43.76
73671;BME280;61968;48.178;11.566;2022-10-31T01:33:51;96220.13;;;13.83;43.95
73671;BME280;61968;48.178;11.566;2022-10-31T01:36:20;96222.63;;;13.90;43.80
73671;BME280;61968;48.178;11.566;2022-10-31T01:38:48;96218.28;;;13.84;43.96
73671;BME280;61968;48.178;11.566;2022-10-31T01:41:16;96215.28;;;13.80;43.92
73671;BME280;61968;48.178;11.566;2022-10-31T01:43:51;96217.38;;;13.78;44.08
73671;BME280;61968;48.178;11.566;2022-10-31T01:46:22;96213.44;;;13.80;43.97
73671;BME280;61968;48.178;11.566;2022-10-31T01:48:53;96213.59;;;13.74;44.00
73671;BME280;61968;48.178;11.566;2022-10-31T01:51:25;96207.16;;;13.70;44.19
73671;BME280;61968;48.178;11.566;2022-10-31T01:53:54;96211.41;;;13.71;44.00
73671;BME280;61968;48.178;11.566;2022-10-31T01:56:22;96209.34;;;13.73;44.01
73671;BME280;61968;48.178;11.566;2022-10-31T01:58:50;96210.75;;;13.64;44.15
73671;BME280;61968;48.178;11.566;2022-10-31T02:01:18;96207.06;;;13.65;44.05
73671;BME280;61968;48.178;11.566;2022-10-31T02:03:46;96208.00;;;13.47;44.32
73671;BME280;61968;48.178;11.566;2022-10-31T02:06:22;96209.09;;;13.34;44.68
73671;BME280;61968;48.178;11.566;2022-10-31T02:08:54;96204.44;;;13.41;44.28
73671;BME280;61968;48.178;11.566;2022-10-31T02:11:22;96206.41;;;13.57;43.95
73671;BME280;61968;48.178;11.566;2022-10-31T02:13:49;96209.94;;;13.63;43.72
73671;BME280;61968;48.178;11.566;2022-10-31T02:16:16;96208.59;;;13.61;43.78
73671;BME280;61968;48.178;11.566;2022-10-31T02:18:43;96209.75;;;13.53;43.91
73671;BME280;61968;48.178;11.566;2022-10-31T02:21:15;96205.09;;;13.48;44.00
73671;BME280;61968;48.178;11.566;2022-10-31T02:24:29;96211.72;;;13.46;44.09
73671;BME280;61968;48.178;11.566;2022-10-31T02:27:11;96208.16;;;13.40;44.09
73671;BME280;61968;48.178;11.566;2022-10-31T02:30:04;96208.41;;;13.27;44.48
73671;BME280;61968;48.178;11.566;2022-10-31T02:32:46;96212.72;;;13.16;44.36
73671;BME280;61968;48.178;11.566;2022-10-31T02:35:23;96205.56;;;13.17;44.36
73671;BME280;61968;48.178;11.566;2022-10-31T02:37:58;96206.38;;;13.05;44.62
73671;BME280;61968;48.178;11.566;2022-10-31T02:40:33;96205.09;;;13.20;44.26
73671;BME280;61968;48.178;11.566;2022-10-31T02:43:05;96209.47;;;13.26;43.91
73671;BME280;61968;48.178;11.566;2022-10-31T02:45:37;96210.25;;;13.26;43.87
73671;BME280;61968;48.178;11.566;2022-10-31T02:48:10;96209.81;;;13.18;44.05
73671;BME280;61968;48.178;11.566;2022-10-31T02:50:41;96207.28;;;13.23;44.27
73671;BME280;61968;48.178;11.566;2022-10-31T02:53:14;96209.78;;;13.29;43.90
73671;BME280;61968;48.178;11.566;2022-10-31T02:55:51;96207.72;;;13.31;43.88
73671;BME280;61968;48.178;11.566;2022-10-31T02:58:24;96210.72;;;13.35;43.92
73671;BME280;61968;48.178;11.566;2022-10-31T03:01:18;96211.97;;;13.32;43.81
73671;BME280;61968;48.178;11.566;2022-10-31T03:04:01;96209.78;;;13.29;43.94
73671;BME280;61968;48.178;11.566;2022-10-31T03:06:33;96207.38;;;13.28;44.10
73671;BME280;61968;48.178;11.566;2022-10-31T03:09:09;96206.81;;;13.26;43.95
73671;BME280;61968;48.178;11.566;2022-10-31T03:11:42;96205.22;;;13.25;43.99
73671;BME280;61968;48.178;11.566;2022-10-31T03:14:17;96205.75;;;13.27;43.86
73671;BME280;61968;48.178;11.566;2022-10-31T03:16:47;96202.63;;;13.30;43.91
73671;BME280;61968;48.178;11.566;2022-10-31T03:19:18;96204.81;;;13.33;43.74
73671;BME280;61968;48.178;11.566;2022-10-31T03:21:48;96211.91;;;13.27;44.07
73671;BME280;61968;48.178;11.566;2022-10-31T03:24:17;96211.78;;;13.22;44.42
73671;BME280;61968;48.178;11.566;2022-10-31T03:26:48;96204.97;;;13.14;44.26
73671;BME280;61968;48.178;11.566;2022-10-31T03:29:19;96208.69;;;13.13;44.10
73671;BME280;61968;48.178;11.566;2022-10-31T03:31:50;96202.91;;;13.17;44.09
73671;BME280;61968;48.178;11.566;2022-10-31T03:34:19;96207.47;;;13.33;43.65
73671;BME280;61968;48.178;11.566;2022-10-31T03:36:50;96201.59;;;13.31;43.72
73671;BME280;61968;48.178;11.566;2022-10-31T03:39:19;96203.25;;;13.20;43.94
73671;BME280;61968;48.178;11.566;2022-10-31T03:41:53;96207.91;;;13.01;44.63
73671;BME280;61968;48.178;11.566;2022-10-31T03:44:22;96206.38;;;13.05;44.30
73671;BME280;61968;48.178;11.566;2022-10-31T03:46:50;96207.16;;;13.18;44.12
73671;BME280;61968;48.178;11.566;2022-10-31T03:49:18;96198.63;;;13.27;43.69
73671;BME280;61968;48.178;11.566;2022-10-31T03:51:49;96209.00;;;13.29;43.61
73671;BME280;61968;48.178;11.566;2022-10-31T03:54:24;96199.50;;;13.33;43.46
73671;BME280;61968;48.178;11.566;2022-10-31T03:56:54;96209.09;;;13.34;43.18
73671;BME280;61968;48.178;11.566;2022-10-31T03:59:25;96214.41;;;13.34;43.47
73671;BME280;61968;48.178;11.566;2022-10-31T04:01:56;96209.03;;;13.17;43.94
73671;BME280;61968;48.178;11.566;2022-10-31T04:04:25;96217.47;;;13.02;44.20
73671;BME280;61968;48.178;11.566;2022-10-31T04:06:54;96212.50;;;13.06;44.10
73671;BME280;61968;48.178;11.566;2022-10-31T04:09:24;96212.75;;;13.04;43.93
73671;BME280;61968;48.178;11.566;2022-10-31T04:11:53;96207.78;;;13.08;44.27
73671;BME280;61968;48.178;11.566;2022-10-31T04:14:23;96215.53;;;12.98;44.31
73671;BME280;61968;48.178;11.566;2022-10-31T04:16:51;96217.28;;;12.92;44.40
73671;BME280;61968;48.178;11.566;2022-10-31T04:19:18;96209.19;;;12.87;44.37
73671;BME280;61968;48.178;11.566;2022-10-31T04:21:46;96206.22;;;12.83;44.54
73671;BME280;61968;48.178;11.566;2022-10-31T04:24:13;96214.03;;;12.90;44.28
73671;BME280;61968;48.178;11.566;2022-10-31T04:26:39;96204.59;;;12.94;44.28
73671;BME280;61968;48.178;11.566;2022-10-31T04:29:06;96211.16;;;12.92;44.27
73671;BME280;61968;48.178;11.566;2022-10-31T04:31:32;96213.69;;;12.86;44.60
73671;BME280;61968;48.178;11.566;2022-10-31T04:33:59;96213.03;;;12.79;44.52
73671;BME280;61968;48.178;11.566;2022-10-31T04:36:25;96214.41;;;12.82;44.62
73671;BME280;61968;48.178;11.566;2022-10-31T04:38:54;96214.84;;;12.90;44.25
73671;BME280;61968;48.178;11.566;2022-10-31T04:41:21;96214.16;;;12.95;44.16
73671;BME280;61968;48.178;11.566;2022-10-31T04:43:48;96210.91;;;12.93;44.18
73671;BME280;61968;48.178;11.566;2022-10-31T04:46:16;96209.31;;;12.92;44.16
73671;BME280;61968;48.178;11.566;2022-10-31T04:48:43;96220.88;;;12.86;44.26
73671;BME280;61968;48.178;11.566;2022-10-31T04:51:09;96218.09;;;12.81;44.46
73671;BME280;61968;48.178;11.566;2022-10-31T04:53:36;96224.53;;;12.97;43.85
73671;BME280;61968;48.178;11.566;2022-10-31T04:56:04;96219.56;;;13.00;44.04
73671;BME280;61968;48.178;11.566;2022-10-31T04:58:31;96220.25;;;12.96;44.09
73671;BME280;61968;48.178;11.566;2022-10-31T05:00:58;96220.25;;;12.96;43.85
73671;BME280;61968;48.178;11.566;2022-10-31T05:03:25;96216.69;;;12.78;44.51
73671;BME280;61968;48.178;11.566;2022-10-31T05:05:52;96219.59;;;12.77;44.59
73671;BME280;61968;48.178;11.566;2022-10-31T05:08:19;96218.22;;;12.74;44.55
73671;BME280;61968;48.178;11.566;2022-10-31T05:10:45;96217.97;;;12.76;44.41
73671;BME280;61968;48.178;11.566;2022-10-31T05:13:13;96214.97;;;12.84;44.29
73671;BME280;61968;48.178;11.566;2022-10-31T05:15:41;96210.59;;;12.78;44.23
73671;BME280;61968;48.178;11.566;2022-10-31T05:18:07;96209.00;;;12.77;44.24
73671;BME280;61968;48.178;11.566;2022-10-31T05:20:34;96209.44;;;12.74;44.37
73671;BME280;61968;48.178;11.566;2022-10-31T05:23:00;96204.69;;;12.76;44.19
73671;BME280;61968;48.178;11.566;2022-10-31T05:25:29;96204.94;;;12.74;44.00
73671;BME280;61968;48.178;11.566;2022-10-31T05:27:56;96194.00;;;12.71;43.90
73671;BME280;61968;48.178;11.566;2022-10-31T05:30:26;96194.94;;;12.64;44.17
73671;BME280;61968;48.178;11.566;2022-10-31T05:32:53;96198.56;;;12.63;44.25
73671;BME280;61968;48.178;11.566;2022-10-31T05:35:21;96191.66;;;12.62;43.99
73671;BME280;61968;48.178;11.566;2022-10-31T05:37:48;96202.03;;;12.76;43.98
73671;BME280;61968;48.178;11.566;2022-10-31T05:40:17;96194.00;;;12.71;44.00
73671;BME280;61968;48.178;11.566;2022-10-31T05:42:44;96198.50;;;12.70;44.10
73671;BME280;61968;48.178;11.566;2022-10-31T05:45:13;96191.22;;;12.65;44.04
73671;BME280;61968;48.178;11.566;2022-10-31T05:47:42;96202.50;;;12.73;43.85
73671;BME280;61968;48.178;11.566;2022-10-31T05:50:09;96191.22;;;12.65;44.15
73671;BME280;61968;48.178;11.566;2022-10-31T05:52:36;96192.03;;;12.66;44.03
73671;BME280;61968;48.178;11.566;2022-10-31T05:55:03;96200.66;;;12.61;44.11
73671;BME280;61968;48.178;11.566;2022-10-31T05:57:32;96198.81;;;12.62;44.01
73671;BME280;61968;48.178;11.566;2022-10-31T06:00:00;96192.38;;;12.58;43.94
73671;BME280;61968;48.178;11.566;2022-10-31T06:02:27;96197.09;;;12.56;44.00
73671;BME280;61968;48.178;11.566;2022-10-31T06:04:58;96189.34;;;12.54;44.13
73671;BME280;61968;48.178;11.566;2022-10-31T06:07:25;96189.81;;;12.51;44.29
73671;BME280;61968;48.178;11.566;2022-10-31T06:09:51;96189.25;;;12.49;44.43
73671;BME280;61968;48.178;11.566;2022-10-31T06:12:19;96198.69;;;12.45;44.71
73671;BME280;61968;48.178;11.566;2022-10-31T06:14:46;96199.28;;;12.47;44.45
73671;BME280;61968;48.178;11.566;2022-10-31T06:17:12;96195.38;;;12.50;44.23
73671;BME280;61968;48.178;11.566;2022-10-31T06:19:39;96199.41;;;12.52;44.18
73671;BME280;61968;48.178;11.566;2022-10-31T06:22:08;96199.41;;;12.52;44.36
73671;BME280;61968;48.178;11.566;2022-10-31T06:24:36;96204.13;;;12.50;44.39
73671;BME280;61968;48.178;11.566;2022-10-31T06:27:03;96204.13;;;12.50;44.35
73671;BME280;61968;48.178;11.566;2022-10-31T06:29:30;96205.72;;;12.51;44.35
73671;BME280;61968;48.178;11.566;2022-10-31T06:31:57;96208.97;;;12.53;44.11
73671;BME280;61968;48.178;11.566;2022-10-31T06:34:24;96208.97;;;12.53;44.34
73671;BME280;61968;48.178;11.566;2022-10-31T06:36:51;96212.66;;;12.52;44.33
73671;BME280;61968;48.178;11.566;2022-10-31T06:39:19;96197.09;;;12.56;44.36
73671;BME280;61968;48.178;11.566;2022-10-31T06:41:47;96195.25;;;12.56;44.25
73671;BME280;61968;48.178;11.566;2022-10-31T06:44:13;96201.59;;;12.55;44.13
73671;BME280;61968;48.178;11.566;2022-10-31T06:46:41;96199.03;;;12.60;44.15
73671;BME280;61968;48.178;11.566;2022-10-31T06:49:07;96205.97;;;12.61;44.20
73671;BME280;61968;48.178;11.566;2022-10-31T06:51:34;96208.63;;;12.61;44.27
73671;BME280;61968;48.178;11.566;2022-10-31T06:54:00;96200.06;;;12.59;44.26
73671;BME280;61968;48.178;11.566;2022-10-31T06:56:28;96203.78;;;12.58;44.71
73671;BME280;61968;48.178;11.566;2022-10-31T06:58:55;96199.63;;;12.62;44.48
73671;BME280;61968;48.178;11.566;2022-10-31T07:01:21;96207.94;;;12.66;44.27
73671;BME280;61968;48.178;11.566;2022-10-31T07:03:48;96209.44;;;12.74;44.38
73671;BME280;61968;48.178;11.566;2022-10-31T07:06:15;96211.06;;;12.75;44.12
73671;BME280;61968;48.178;11.566;2022-10-31T07:08:42;96214.03;;;12.78;44.05
73671;BME280;61968;48.178;11.566;2022-10-31T07:11:08;96217.50;;;12.79;44.19
73671;BME280;61968;48.178;11.566;2022-10-31T07:13:37;96214.03;;;12.78;44.33
73671;BME280;61968;48.178;11.566;2022-10-31T07:16:04;96215.44;;;12.81;44.29
73671;BME280;61968;48.178;11.566;2022-10-31T07:18:32;96219.34;;;12.90;44.19
73671;BME280;61968;48.178;11.566;2022-10-31T07:20:59;96226.28;;;12.91;44.19
73671;BME280;61968;48.178;11.566;2022-10-31T07:23:26;96213.91;;;12.97;44.29
73671;BME280;61968;48.178;11.566;2022-10-31T07:25:55;96211.50;;;12.95;44.24
73671;BME280;61968;48.178;11.566;2022-10-31T07:28:22;96221.53;;;12.93;44.16
73671;BME280;61968;48.178;11.566;2022-10-31T07:30:51;96214.50;;;12.99;44.25
73671;BME280;61968;48.178;11.566;2022-10-31T07:33:18;96213.69;;;12.98;44.53
73671;BME280;61968;48.178;11.566;2022-10-31T07:35:46;96216.34;;;12.98;44.46
73671;BME280;61968;48.178;11.566;2022-10-31T07:38:14;96213.81;;;13.03;44.38
73671;BME280;61968;48.178;11.566;2022-10-31T07:40:42;96211.69;;;13.05;44.28
73671;BME280;61968;48.178;11.566;2022-10-31T07:43:11;96219.31;;;13.13;44.23
73671;BME280;61968;48.178;11.566;2022-10-31T07:45:38;96214.34;;;13.17;44.22
73671;BME280;61968;48.178;11.566;2022-10-31T07:48:06;96208.09;;;13.23;44.09
73671;BME280;61968;48.178;11.566;2022-10-31T07:50:33;96210.50;;;13.25;44.08
73671;BME280;61968;48.178;11.566;2022-10-31T07:53:01;96211.50;;;13.35;44.09
73671;BME280;61968;48.178;11.566;2022-10-31T07:55:29;96214.03;;;13.42;43.82
73671;BME280;61968;48.178;11.566;2022-10-31T07:57:56;96208.16;;;13.40;44.36
73671;BME280;61968;48.178;11.566;2022-10-31T08:00:23;96201.09;;;13.46;44.14
73671;BME280;61968;48.178;11.566;2022-10-31T08:02:56;96203.38;;;13.54;43.95
73671;BME280;61968;48.178;11.566;2022-10-31T08:05:24;96206.16;;;13.59;43.93
73671;BME280;61968;48.178;11.566;2022-10-31T08:07:52;96197.94;;;13.61;44.30
73671;BME280;61968;48.178;11.566;2022-10-31T08:10:19;96194.47;;;13.60;44.79
73671;BME280;61968;48.178;11.566;2022-10-31T08:12:46;96199.78;;;13.60;44.83
73671;BME280;61968;48.178;11.566;2022-10-31T08:15:12;96195.38;;;13.66;44.77
73671;BME280;61968;48.178;11.566;2022-10-31T08:17:39;96198.22;;;13.76;45.16
73671;BME280;61968;48.178;11.566;2022-10-31T08:20:06;96192.19;;;13.80;44.86
73671;BME280;61968;48.178;11.566;2022-10-31T08:22:35;96192.75;;;13.83;45.09
73671;BME280;61968;48.178;11.566;2022-10-31T08:25:02;96192.28;;;13.86;45.34
73671;BME280;61968;48.178;11.566;2022-10-31T08:27:30;96187.28;;;13.89;45.32
73671;BME280;61968;48.178;11.566;2022-10-31T08:29:57;96185.75;;;13.93;45.46
73671;BME280;61968;48.178;11.566;2022-10-31T08:32:24;96184.38;;;13.91;45.71
73671;BME280;61968;48.178;11.566;2022-10-31T08:34:51;96180.44;;;13.93;45.78
73671;BME280;61968;48.178;11.566;2022-10-31T08:37:18;96181.56;;;13.97;46.40
73671;BME280;61968;48.178;11.566;2022-10-31T08:39:47;96178.44;;;14.00;46.36
73671;BME280;61968;48.178;11.566;2022-10-31T08:42:14;96176.06;;;14.21;45.88
73671;BME280;61968;48.178;11.566;2022-10-31T08:44:41;96173.03;;;14.29;45.56
73671;BME280;61968;48.178;11.566;2022-10-31T08:47:08;96166.00;;;14.23;45.92
73671;BME280;61968;48.178;11.566;2022-10-31T08:49:34;96171.34;;;14.23;46.33
73671;BME280;61968;48.178;11.566;2022-10-31T08:52:01;96165.63;;;14.31;45.73
73671;BME280;61968;48.178;11.566;2022-10-31T08:54:28;96163.69;;;14.43;45.14
73671;BME280;61968;48.178;11.566;2022-10-31T08:56:56;96160.38;;;14.53;44.93
73671;BME280;61968;48.178;11.566;2022-10-31T08:59:23;96159.16;;;14.61;45.03
73671;BME280;61968;48.178;11.566;2022-10-31T09:01:51;96158.50;;;14.54;45.02
73671;BME280;61968;48.178;11.566;2022-10-31T09:04:18;96151.59;;;14.53;45.07
73671;BME280;61968;48.178;11.566;2022-10-31T09:06:45;96149.81;;;14.58;44.61
73671;BME280;61968;48.178;11.566;2022-10-31T09:09:11;96144.47;;;14.58;44.78
73671;BME280;61968;48.178;11.566;2022-10-31T09:11:38;96139.47;;;14.62;44.66
73671;BME280;61968;48.178;11.566;2022-10-31T09:14:06;96143.00;;;14.67;44.64
73671;BME280;61968;48.178;11.566;2022-10-31T09:16:33;96136.69;;;14.73;44.16
73671;BME280;61968;48.178;11.566;2022-10-31T09:18:59;96129.63;;;14.84;43.67
73671;BME280;61968;48.178;11.566;2022-10-31T09:21:26;96132.28;;;14.84;43.46
73671;BME280;61968;48.178;11.566;2022-10-31T09:23:52;96128.09;;;14.88;43.24
73671;BME280;61968;48.178;11.566;2022-10-31T09:26:22;96129.75;;;14.94;43.29
73671;BME280;61968;48.178;11.566;2022-10-31T09:28:48;96122.66;;;15.00;43.10
73671;BME280;61968;48.178;11.566;2022-10-31T09:31:16;96121.09;;;15.04;42.89
73671;BME280;61968;48.178;11.566;2022-10-31T09:33:43;96117.13;;;15.07;42.52
73671;BME280;61968;48.178;11.566;2022-10-31T09:36:10;96119.22;;;15.05;42.78
73671;BME280;61968;48.178;11.566;2022-10-31T09:38:36;96114.81;;;15.15;42.30
73671;BME280;61968;48.178;11.566;2022-10-31T09:41:11;96114.59;;;15.17;42.70
73671;BME280;61968;48.178;11.566;2022-10-31T09:43:49;96114.16;;;15.25;42.28
73671;BME280;61968;48.178;11.566;2022-10-31T09:46:25;96119.28;;;15.32;42.09
73671;BME280;61968;48.178;11.566;2022-10-31T09:49:13;96115.31;;;15.34;42.40
73671;BME280;61968;48.178;11.566;2022-10-31T09:51:51;96111.06;;;15.38;42.54
73671;BME280;61968;48.178;11.566;2022-10-31T09:54:21;96108.41;;;15.38;42.45
73671;BME280;61968;48.178;11.566;2022-10-31T09:56:52;96107.38;;;15.39;41.49
73671;BME280;61968;48.178;11.566;2022-10-31T09:59:23;96103.16;;;15.44;41.14
73671;BME280;61968;48.178;11.566;2022-10-31T10:01:55;96104.75;;;15.45;40.94
73671;BME280;61968;48.178;11.566;2022-10-31T10:04:32;96102.41;;;15.48;40.24
73671;BME280;61968;48.178;11.566;2022-10-31T10:07:06;96109.38;;;15.54;39.89
73671;BME280;61968;48.178;11.566;2022-10-31T10:09:34;96098.41;;;15.51;39.40
73671;BME280;61968;48.178;11.566;2022-10-31T10:12:09;96097.91;;;15.54;40.42
73671;BME280;61968;48.178;11.566;2022-10-31T10:14:52;96095.34;;;15.64;38.96
73671;BME280;61968;48.178;11.566;2022-10-31T10:17:34;96097.72;;;15.60;40.26
73671;BME280;61968;48.178;11.566;2022-10-31T10:20:21;96097.75;;;15.66;39.37
73671;BME280;61968;48.178;11.566;2022-10-31T10:22:55;96103.41;;;15.74;39.44
73671;BME280;61968;48.178;11.566;2022-10-31T10:25:33;96101.88;;;15.83;39.12
73671;BME280;61968;48.178;11.566;2022-10-31T10:28:09;96097.41;;;15.89;39.64
73671;BME280;61968;48.178;11.566;2022-10-31T10:30:41;96094.19;;;15.87;39.55
73671;BME280;61968;48.178;11.566;2022-10-31T10:33:14;96086.50;;;15.91;39.86
73671;BME280;61968;48.178;11.566;2022-10-31T10:35:46;96090.84;;;16.02;39.84
73671;BME280;61968;48.178;11.566;2022-10-31T10:38:20;96087.66;;;16.05;39.18
73671;BME280;61968;48.178;11.566;2022-10-31T10:40:51;96083.13;;;16.05;39.39
73671;BME280;61968;48.178;11.566;2022-10-31T10:43:24;96086.63;;;16.06;39.52
73671;BME280;61968;48.178;11.566;2022-10-31T10:46:00;96078.66;;;16.11;39.68
73671;BME280;61968;48.178;11.566;2022-10-31T10:48:54;96075.78;;;16.23;38.98
73671;BME280;61968;48.178;11.566;2022-10-31T10:51:31;96076.34;;;16.25;38.70
73671;BME280;61968;48.178;11.566;2022-10-31T10:54:33;96070.22;;;16.24;39.37
73671;BME280;61968;48.178;11.566;2022-10-31T10:57:07;96072.34;;;16.27;39.02
73671;BME280;61968;48.178;11.566;2022-10-31T10:59:38;96068.91;;;16.32;39.38
73671;BME280;61968;48.178;11.566;2022-10-31T11:02:16;96069.69;;;16.32;39.02
73671;BME280;61968;48.178;11.566;2022-10-31T11:04:47;96061.19;;;16.36;39.23
73671;BME280;61968;48.178;11.566;2022-10-31T11:07:18;96063.31;;;16.39;38.74
73671;BME280;61968;48.178;11.566;2022-10-31T11:09:45;96059.06;;;16.38;39.36
73671;BME280;61968;48.178;11.566;2022-10-31T11:12:19;96051.59;;;16.40;38.85
73671;BME280;61968;48.178;11.566;2022-10-31T11:14:50;96053.75;;;16.48;38.68
73671;BME280;61968;48.178;11.566;2022-10-31T11:17:22;96053.47;;;16.44;39.10
73671;BME280;61968;48.178;11.566;2022-10-31T11:20:05;96045.75;;;16.43;39.32
73671;BME280;61968;48.178;11.566;2022-10-31T11:22:32;96037.22;;;16.46;39.52
73671;BME280;61968;48.178;11.566;2022-10-31T11:24:59;96041.78;;;16.55;38.64
73671;BME280;61968;48.178;11.566;2022-10-31T11:27:26;96041.81;;;16.61;39.05
73671;BME280;61968;48.178;11.566;2022-10-31T11:30:04;96034.63;;;16.61;39.69
73671;BME280;61968;48.178;11.566;2022-10-31T11:32:31;96032.50;;;16.68;39.24
73671;BME280;61968;48.178;11.566;2022-10-31T11:35:00;96035.47;;;16.72;38.97
73671;BME280;61968;48.178;11.566;2022-10-31T11:37:31;96030.94;;;16.77;38.97
73671;BME280;61968;48.178;11.566;2022-10-31T11:40:04;96029.91;;;16.79;39.37
73671;BME280;61968;48.178;11.566;2022-10-31T11:42:36;96029.38;;;16.82;38.38
73671;BME280;61968;48.178;11.566;2022-10-31T11:45:19;96018.97;;;16.85;38.09
73671;BME280;61968;48.178;11.566;2022-10-31T11:47:55;96011.25;;;16.94;38.17
73671;BME280;61968;48.178;11.566;2022-10-31T11:50:25;96008.56;;;16.99;38.03
73671;BME280;61968;48.178;11.566;2022-10-31T11:52:54;96007.25;;;17.07;37.23
73671;BME280;61968;48.178;11.566;2022-10-31T11:55:31;95998.72;;;17.15;36.05
73671;BME280;61968;48.178;11.566;2022-10-31T11:57:58;96000.31;;;17.16;35.36
73671;BME280;61968;48.178;11.566;2022-10-31T12:00:27;95999.25;;;17.17;35.28
73671;BME280;61968;48.178;11.566;2022-10-31T12:03:06;96001.13;;;17.16;35.19
73671;BME280;61968;48.178;11.566;2022-10-31T12:05:39;96005.38;;;17.17;35.39
73671;BME280;61968;48.178;11.566;2022-10-31T12:08:12;95993.91;;;17.17;35.13
73671;BME280;61968;48.178;11.566;2022-10-31T12:10:40;95995.22;;;17.14;35.36
73671;BME280;61968;48.178;11.566;2022-10-31T12:13:26;95992.56;;;17.14;35.55
73671;BME280;61968;48.178;11.566;2022-10-31T12:16:04;95992.31;;;17.16;35.96
73671;BME280;61968;48.178;11.566;2022-10-31T12:18:43;95985.34;;;17.20;35.75
73671;BME280;61968;48.178;11.566;2022-10-31T12:21:22;95982.97;;;17.18;35.26
73671;BME280;61968;48.178;11.566;2022-10-31T12:24:02;95985.38;;;17.15;35.76
73671;BME280;61968;48.178;11.566;2022-10-31T12:26:36;95984.03;;;17.12;35.81
73671;BME280;61968;48.178;11.566;2022-10-31T12:29:18;95982.41;;;17.11;36.11
73671;BME280;61968;48.178;11.566;2022-10-31T12:32:02;95978.41;;;17.09;36.10
73671;BME280;61968;48.178;11.566;2022-10-31T12:35:00;95980.00;;;17.10;35.68
73671;BME280;61968;48.178;11.566;2022-10-31T12:37:43;95974.66;;;17.10;36.10
73671;BME280;61968;48.178;11.566;2022-10-31T12:40:32;95978.94;;;17.06;36.39
73671;BME280;61968;48.178;11.566;2022-10-31T12:43:20;95973.88;;;17.09;36.66
73671;BME280;61968;48.178;11.566;2022-10-31T12:45:53;95975.47;;;17.15;36.30
73671;BME280;61968;48.178;11.566;2022-10-31T12:48:52;95970.94;;;17.16;36.65
73671;BME280;61968;48.178;11.566;2022-10-31T12:51:31;95967.19;;;17.22;36.48
73671;BME280;61968;48.178;11.566;2022-10-31T12:54:16;95961.31;;;17.20;36.41
73671;BME280;61968;48.178;11.566;2022-10-31T12:56:53;95950.88;;;17.23;36.50
73671;BME280;61968;48.178;11.566;2022-10-31T12:59:30;95951.19;;;17.27;36.29
73671;BME280;61968;48.178;11.566;2022-10-31T13:02:00;95941.28;;;17.33;36.37
73671;BME280;61968;48.178;11.566;2022-10-31T13:04:36;95935.91;;;17.38;36.50
73671;BME280;61968;48.178;11.566;2022-10-31T13:07:08;95928.47;;;17.45;36.72